TAF Text Data
IDs:
Format:
Raw Decoded Include METAR

Data at: 1304 UTC 19 Feb 2020

KBWI 191120Z 1912/2018 32009KT P6SM BKN110
  FM191400 32010G17KT P6SM SCT250
  FM200000 34005KT P6SM SCT200
  FM201100 36004KT P6SM BKN200
  FM201700 33005KT P6SM BKN090